Time;durP1;ratioP1;P1;durP2;ratioP2;P2;SDS_P1;SDS_P2;PMS_P1;PMS_P2;Temp;Humidity;BMP_temperature;BMP_pressure;BME280_temperature;BME280_humidity;BME280_pressure;Samples;Min_cycle;Max_cycle;Signal;HPM_P1;HPM_P2
2023/01/13 00:01:33;;;;;;;;;;;19.00;54.30;;;;;;5017078;28;19910;-53
2023/01/13 00:03:59;;;;;;;;;;;19.00;54.30;;;;;;5010496;28;19960;-53
2023/01/13 00:06:25;;;;;;;;;;;19.00;54.50;;;;;;5009197;28;19913;-53
2023/01/13 00:08:50;;;;;;;;;;;19.00;54.50;;;;;;5015470;28;19917;-52
2023/01/13 00:11:16;;;;;;;;;;;18.90;54.40;;;;;;4993409;28;19914;-53
2023/01/13 00:13:41;;;;;;;;;;;18.90;54.40;;;;;;5003446;28;20048;-52
2023/01/13 00:16:09;;;;;;;;;;;18.90;54.50;;;;;;5024040;28;20003;-52
2023/01/13 00:18:37;;;;;;;;;;;18.90;54.50;;;;;;5023810;28;19920;-52
2023/01/13 00:21:03;;;;;;;;;;;18.90;54.60;;;;;;5030705;28;19971;-52
2023/01/13 00:23:29;;;;;;;;;;;18.90;54.60;;;;;;5023013;28;19925;-52
2023/01/13 00:25:55;;;;;;;;;;;18.90;54.60;;;;;;5011728;28;20023;-52
2023/01/13 00:28:21;;;;;;;;;;;18.90;54.70;;;;;;4994752;28;20358;-53
2023/01/13 00:30:46;;;;;;;;;;;18.90;54.70;;;;;;4993741;28;19972;-52
2023/01/13 00:33:12;;;;;;;;;;;18.90;54.70;;;;;;5015358;28;19914;-52
2023/01/13 00:35:37;;;;;;;;;;;18.90;54.80;;;;;;5042201;28;19963;-52
2023/01/13 00:38:03;;;;;;;;;;;18.90;54.70;;;;;;4993419;28;19949;-52
2023/01/13 00:40:28;;;;;;;;;;;18.90;54.70;;;;;;5002306;28;19913;-52
2023/01/13 00:45:37;;;;;;;;;;;18.90;54.90;;;;;;5002041;28;19956;-52
2023/01/13 00:48:03;;;;;;;;;;;18.80;54.90;;;;;;5000561;28;20345;-52
2023/01/13 00:50:29;;;;;;;;;;;18.90;54.90;;;;;;4992304;28;19918;-52
2023/01/13 00:52:54;;;;;;;;;;;18.80;54.90;;;;;;4993711;28;19914;-53
2023/01/13 00:55:20;;;;;;;;;;;18.80;54.90;;;;;;4999334;28;20298;-53
2023/01/13 00:57:45;;;;;;;;;;;18.80;55.00;;;;;;5004956;28;19990;-52
2023/01/13 01:00:11;;;;;;;;;;;18.80;55.00;;;;;;4995645;28;19921;-53
2023/01/13 01:02:36;;;;;;;;;;;18.70;54.90;;;;;;4995485;28;19924;-53
2023/01/13 01:05:02;;;;;;;;;;;18.80;55.00;;;;;;5005700;28;20429;-53
2023/01/13 01:07:27;;;;;;;;;;;18.70;54.90;;;;;;5014619;28;19924;-53
2023/01/13 01:09:53;;;;;;;;;;;18.70;54.90;;;;;;5021025;28;20012;-52
2023/01/13 01:12:18;;;;;;;;;;;18.70;54.90;;;;;;5010471;28;19956;-53
2023/01/13 01:14:44;;;;;;;;;;;18.70;55.00;;;;;;5003832;28;19917;-53
2023/01/13 01:17:09;;;;;;;;;;;18.70;54.90;;;;;;5012451;28;19939;-53
2023/01/13 01:19:37;;;;;;;;;;;18.70;55.00;;;;;;5012354;28;19914;-52
2023/01/13 01:22:03;;;;;;;;;;;18.70;55.00;;;;;;5012106;28;19918;-52
2023/01/13 01:24:28;;;;;;;;;;;18.70;55.00;;;;;;5025541;28;19968;-52
2023/01/13 01:26:53;;;;;;;;;;;18.70;55.00;;;;;;5019586;28;20012;-52
2023/01/13 01:29:19;;;;;;;;;;;18.70;55.00;;;;;;5012553;28;20274;-53
2023/01/13 01:31:44;;;;;;;;;;;18.60;55.00;;;;;;5012338;28;20322;-53
2023/01/13 01:34:10;;;;;;;;;;;18.60;55.00;;;;;;5012495;28;19910;-52
2023/01/13 01:36:35;;;;;;;;;;;18.60;55.00;;;;;;5010017;28;19921;-52
2023/01/13 01:39:01;;;;;;;;;;;18.60;55.00;;;;;;5012446;28;19914;-52
2023/01/13 01:41:27;;;;;;;;;;;18.60;55.00;;;;;;5012186;28;19916;-52
2023/01/13 01:44:01;;;;;;;;;;;18.60;55.00;;;;;;5010569;28;19909;-53
2023/01/13 01:46:34;;;;;;;;;;;18.60;55.10;;;;;;4993362;28;20012;-52
2023/01/13 01:49:04;;;;;;;;;;;18.60;55.10;;;;;;5000137;28;19925;-53
2023/01/13 01:51:31;;;;;;;;;;;18.60;55.10;;;;;;5016988;28;19918;-52
2023/01/13 01:53:56;;;;;;;;;;;18.60;55.10;;;;;;5003123;28;19953;-52
2023/01/13 01:56:22;;;;;;;;;;;18.60;55.00;;;;;;4999431;28;19950;-53
2023/01/13 01:58:49;;;;;;;;;;;18.60;55.10;;;;;;4993438;28;19914;-52
2023/01/13 02:01:15;;;;;;;;;;;18.60;55.20;;;;;;4993111;28;20021;-53
2023/01/13 02:03:42;;;;;;;;;;;18.50;55.10;;;;;;5036615;28;19996;-53
2023/01/13 02:06:07;;;;;;;;;;;18.50;55.10;;;;;;5034531;28;19914;-53
2023/01/13 02:08:33;;;;;;;;;;;18.50;55.10;;;;;;5020388;28;20310;-53
2023/01/13 02:10:58;;;;;;;;;;;18.50;55.10;;;;;;5018066;28;19915;-52
2023/01/13 02:13:24;;;;;;;;;;;18.50;55.10;;;;;;5005973;28;19925;-52
2023/01/13 02:16:01;;;;;;;;;;;18.50;55.10;;;;;;5009047;28;19944;-53
2023/01/13 02:18:30;;;;;;;;;;;18.50;55.10;;;;;;5017527;28;19914;-53
2023/01/13 02:21:11;;;;;;;;;;;18.60;55.00;;;;;;5021078;28;20008;-52
2023/01/13 02:26:58;;;;;;;;;;;18.80;54.60;;;;;;5021585;28;19936;-53
2023/01/13 02:32:19;;;;;;;;;;;19.10;54.10;;;;;;5013653;28;21313;-53
2023/01/13 02:34:51;;;;;;;;;;;19.20;53.80;;;;;;5014382;28;19947;-53
2023/01/13 02:37:18;;;;;;;;;;;19.30;53.60;;;;;;5046440;28;19949;-53
2023/01/13 02:39:52;;;;;;;;;;;19.30;53.40;;;;;;5016213;28;19913;-53
2023/01/13 02:45:11;;;;;;;;;;;19.30;53.30;;;;;;5010240;28;20293;-52
2023/01/13 02:47:37;;;;;;;;;;;19.30;53.20;;;;;;5050868;28;19999;-53
2023/01/13 02:50:07;;;;;;;;;;;19.30;53.30;;;;;;5019086;28;20360;-52
2023/01/13 02:52:34;;;;;;;;;;;19.30;53.30;;;;;;5027193;28;19910;-52
2023/01/13 02:55:02;;;;;;;;;;;19.20;53.30;;;;;;5027230;28;19917;-53
2023/01/13 02:57:27;;;;;;;;;;;19.10;53.40;;;;;;5025493;28;19913;-52
2023/01/13 02:59:53;;;;;;;;;;;19.10;53.60;;;;;;5019959;28;19920;-52
2023/01/13 03:02:19;;;;;;;;;;;19.10;53.60;;;;;;5036315;28;19913;-53
2023/01/13 03:04:45;;;;;;;;;;;19.00;53.60;;;;;;5026800;28;19921;-52
2023/01/13 03:07:34;;;;;;;;;;;19.00;53.80;;;;;;5014371;28;19917;-53
2023/01/13 03:10:18;;;;;;;;;;;18.90;53.90;;;;;;5013235;28;19917;-52
2023/01/13 03:12:50;;;;;;;;;;;18.90;54.00;;;;;;5001652;28;19913;-53
2023/01/13 03:15:24;;;;;;;;;;;18.90;54.00;;;;;;5010090;28;20390;-52
2023/01/13 03:17:54;;;;;;;;;;;18.80;54.00;;;;;;5026764;28;19972;-52
2023/01/13 03:20:28;;;;;;;;;;;18.80;54.00;;;;;;5030526;28;19917;-53
2023/01/13 03:23:02;;;;;;;;;;;18.80;54.00;;;;;;5000920;28;20357;-52
2023/01/13 03:25:28;;;;;;;;;;;18.80;54.00;;;;;;5039005;28;19914;-53
2023/01/13 03:27:55;;;;;;;;;;;18.80;54.00;;;;;;4997307;28;19918;-53
2023/01/13 03:30:21;;;;;;;;;;;18.90;54.10;;;;;;5002936;28;19917;-52
2023/01/13 03:32:51;;;;;;;;;;;18.80;54.00;;;;;;5013778;28;19916;-53
2023/01/13 03:35:16;;;;;;;;;;;18.80;54.00;;;;;;5011832;28;20224;-52
2023/01/13 03:37:43;;;;;;;;;;;18.80;54.00;;;;;;4994690;28;19925;-53
2023/01/13 03:40:16;;;;;;;;;;;18.90;54.00;;;;;;5025858;28;20041;-52
2023/01/13 03:44:20;;;;;;;;;;;18.80;54.00;;;;;;5031906;28;19914;-52
2023/01/13 03:45:27;;;;;;;;;;;18.90;54.00;;;;;;5000677;28;19914;-53
2023/01/13 03:47:53;;;;;;;;;;;18.80;54.00;;;;;;5039278;28;19932;-53
2023/01/13 03:50:24;;;;;;;;;;;18.90;54.00;;;;;;5028299;28;20289;-53
2023/01/13 03:52:54;;;;;;;;;;;18.90;54.00;;;;;;5036766;28;19971;-53
2023/01/13 03:55:21;;;;;;;;;;;18.80;53.80;;;;;;5041383;28;20634;-53
2023/01/13 03:57:53;;;;;;;;;;;18.80;54.00;;;;;;5005784;28;20008;-53
2023/01/13 04:00:18;;;;;;;;;;;18.80;53.90;;;;;;4994940;28;19918;-52
2023/01/13 04:02:46;;;;;;;;;;;18.80;54.00;;;;;;5040427;28;19924;-53
2023/01/13 04:05:11;;;;;;;;;;;18.80;54.00;;;;;;5048225;28;19918;-53
2023/01/13 04:07:46;;;;;;;;;;;18.80;54.00;;;;;;4999666;28;19937;-52
2023/01/13 04:10:11;;;;;;;;;;;18.70;53.90;;;;;;5025078;28;19924;-52
2023/01/13 04:13:01;;;;;;;;;;;18.70;53.90;;;;;;4996199;28;19914;-53
2023/01/13 04:15:31;;;;;;;;;;;18.70;53.90;;;;;;5033482;28;19944;-53
2023/01/13 04:18:09;;;;;;;;;;;18.70;53.90;;;;;;5024995;28;19975;-52
2023/01/13 04:20:35;;;;;;;;;;;18.70;54.00;;;;;;5017714;28;19913;-53
2023/01/13 04:23:00;;;;;;;;;;;18.60;53.90;;;;;;5012021;28;20262;-52
2023/01/13 04:25:25;;;;;;;;;;;18.60;53.90;;;;;;5014225;28;20285;-53
2023/01/13 04:27:51;;;;;;;;;;;18.60;54.00;;;;;;5033106;28;19963;-53
2023/01/13 04:30:16;;;;;;;;;;;18.60;54.10;;;;;;5033024;28;19909;-53
2023/01/13 04:32:42;;;;;;;;;;;18.60;54.10;;;;;;5019715;28;19921;-53
2023/01/13 04:35:07;;;;;;;;;;;18.60;54.10;;;;;;5012577;28;19910;-53
2023/01/13 04:37:33;;;;;;;;;;;18.60;53.90;;;;;;5013056;28;19957;-53
2023/01/13 04:39:58;;;;;;;;;;;18.60;53.90;;;;;;5002109;28;19917;-52
2023/01/13 04:42:24;;;;;;;;;;;18.60;53.90;;;;;;4997053;28;19931;-53
2023/01/13 04:44:49;;;;;;;;;;;18.60;53.90;;;;;;4995754;28;20059;-53
2023/01/13 04:47:14;;;;;;;;;;;18.60;53.80;;;;;;5012949;28;19916;-52
2023/01/13 04:49:40;;;;;;;;;;;18.60;53.80;;;;;;5006536;28;19913;-53
2023/01/13 04:52:06;;;;;;;;;;;18.60;53.80;;;;;;4993635;28;19914;-52
2023/01/13 04:54:31;;;;;;;;;;;18.60;53.80;;;;;;4998760;28;19926;-53
2023/01/13 04:56:57;;;;;;;;;;;18.60;53.80;;;;;;4995014;28;19925;-53
2023/01/13 04:59:22;;;;;;;;;;;18.60;53.80;;;;;;4993300;28;19914;-52
2023/01/13 05:01:47;;;;;;;;;;;18.60;53.80;;;;;;4993983;28;20004;-52
2023/01/13 05:04:14;;;;;;;;;;;18.60;53.80;;;;;;5021989;28;19932;-53
2023/01/13 05:06:39;;;;;;;;;;;18.60;53.90;;;;;;4996532;28;19918;-53
2023/01/13 05:09:05;;;;;;;;;;;18.60;53.80;;;;;;5007226;28;20318;-52
2023/01/13 05:16:59;;;;;;;;;;;18.60;53.80;;;;;;4992729;28;20019;-53
2023/01/13 05:19:25;;;;;;;;;;;18.50;53.70;;;;;;4998043;28;19948;-52
2023/01/13 05:27:18;;;;;;;;;;;18.50;53.70;;;;;;4992895;28;19921;-53
2023/01/13 05:29:44;;;;;;;;;;;18.50;53.70;;;;;;4995555;28;19918;-52
2023/01/13 05:32:09;;;;;;;;;;;18.40;53.70;;;;;;4997490;28;19914;-52
2023/01/13 05:34:35;;;;;;;;;;;18.40;53.70;;;;;;4995982;28;20278;-53
2023/01/13 05:37:00;;;;;;;;;;;18.40;53.70;;;;;;5010037;28;19960;-53
2023/01/13 05:39:26;;;;;;;;;;;18.50;53.70;;;;;;5026894;28;19918;-52
2023/01/13 05:44:35;;;;;;;;;;;18.40;53.70;;;;;;4997051;28;20442;-53
2023/01/13 05:47:00;;;;;;;;;;;18.40;53.70;;;;;;5004339;28;20004;-52
2023/01/13 05:49:26;;;;;;;;;;;18.50;53.80;;;;;;4996467;28;19989;-52
2023/01/13 05:51:51;;;;;;;;;;;18.50;53.70;;;;;;4995979;28;19914;-52
2023/01/13 05:54:17;;;;;;;;;;;18.50;53.70;;;;;;4996752;28;20060;-52
2023/01/13 05:56:42;;;;;;;;;;;18.50;53.60;;;;;;4995948;28;20421;-52
2023/01/13 05:59:08;;;;;;;;;;;18.50;53.50;;;;;;5006571;28;20424;-52
2023/01/13 06:01:35;;;;;;;;;;;18.50;53.50;;;;;;4996815;28;19960;-53
2023/01/13 06:04:01;;;;;;;;;;;18.50;53.50;;;;;;5000330;28;19917;-53
2023/01/13 06:06:26;;;;;;;;;;;18.40;53.40;;;;;;4995804;28;20263;-52
2023/01/13 06:08:52;;;;;;;;;;;18.50;53.40;;;;;;5009450;28;19937;-53
2023/01/13 06:11:17;;;;;;;;;;;18.50;53.20;;;;;;4996321;28;19940;-52
2023/01/13 06:13:43;;;;;;;;;;;18.50;53.20;;;;;;5017344;28;19949;-52
2023/01/13 06:16:08;;;;;;;;;;;18.50;53.20;;;;;;5021116;28;20293;-52
2023/01/13 06:18:34;;;;;;;;;;;18.50;53.10;;;;;;5060859;28;20483;-52
2023/01/13 06:20:59;;;;;;;;;;;18.50;53.10;;;;;;5016388;28;19957;-52
2023/01/13 06:23:25;;;;;;;;;;;18.50;53.20;;;;;;5015562;28;19929;-53
2023/01/13 06:26:02;;;;;;;;;;;18.50;53.20;;;;;;5029334;28;19920;-52
2023/01/13 06:28:27;;;;;;;;;;;18.50;53.20;;;;;;5035599;28;19918;-52
2023/01/13 06:30:54;;;;;;;;;;;18.40;53.10;;;;;;5034913;28;19916;-52
2023/01/13 06:33:21;;;;;;;;;;;18.50;53.20;;;;;;5007919;28;20047;-53
2023/01/13 06:35:52;;;;;;;;;;;18.50;53.20;;;;;;4995564;28;20319;-53
2023/01/13 06:38:17;;;;;;;;;;;18.40;53.10;;;;;;5044770;28;19917;-53
2023/01/13 06:40:43;;;;;;;;;;;18.40;53.20;;;;;;5004314;28;19920;-52
2023/01/13 06:43:14;;;;;;;;;;;18.50;53.10;;;;;;5005600;28;20004;-53
2023/01/13 06:46:00;;;;;;;;;;;18.40;53.10;;;;;;4995169;28;19917;-52
2023/01/13 06:48:31;;;;;;;;;;;18.50;53.20;;;;;;5000522;28;19917;-53
2023/01/13 06:50:57;;;;;;;;;;;18.50;53.10;;;;;;5035073;28;19913;-53
2023/01/13 06:53:22;;;;;;;;;;;18.40;53.00;;;;;;5006930;28;19936;-52
2023/01/13 06:55:48;;;;;;;;;;;18.40;52.90;;;;;;4999906;28;19914;-53
2023/01/13 06:58:13;;;;;;;;;;;18.40;52.90;;;;;;5032235;28;20019;-52
2023/01/13 07:00:39;;;;;;;;;;;18.40;52.90;;;;;;5004630;28;20411;-53
2023/01/13 07:03:08;;;;;;;;;;;18.50;52.90;;;;;;4999904;28;20320;-52
2023/01/13 07:05:33;;;;;;;;;;;18.50;52.90;;;;;;5008175;28;19914;-52
2023/01/13 07:07:59;;;;;;;;;;;18.50;52.90;;;;;;4999807;28;19991;-53
2023/01/13 07:10:24;;;;;;;;;;;18.50;52.80;;;;;;4995688;28;19918;-52
2023/01/13 07:15:34;;;;;;;;;;;18.40;52.80;;;;;;5003492;28;19921;-53
2023/01/13 07:18:00;;;;;;;;;;;18.40;52.80;;;;;;5021224;28;19913;-53
2023/01/13 07:20:26;;;;;;;;;;;18.40;52.80;;;;;;5029621;28;19935;-52
2023/01/13 07:22:54;;;;;;;;;;;18.30;52.80;;;;;;5030041;28;19926;-52
2023/01/13 07:25:20;;;;;;;;;;;18.30;52.80;;;;;;5013974;28;19960;-53
2023/01/13 07:27:45;;;;;;;;;;;18.40;52.90;;;;;;5014563;28;20392;-53
2023/01/13 07:30:11;;;;;;;;;;;18.40;53.00;;;;;;5014227;28;20293;-52
2023/01/13 07:32:36;;;;;;;;;;;18.30;53.00;;;;;;5007784;28;19920;-53
2023/01/13 07:35:05;;;;;;;;;;;18.30;53.10;;;;;;4998126;28;19914;-53
2023/01/13 07:37:33;;;;;;;;;;;18.30;53.10;;;;;;4994459;28;20354;-52
2023/01/13 07:39:59;;;;;;;;;;;18.30;53.00;;;;;;4995934;28;19924;-52
2023/01/13 07:45:09;;;;;;;;;;;18.30;53.70;;;;;;5005168;28;19960;-53
2023/01/13 07:47:34;;;;;;;;;;;18.30;53.10;;;;;;5008197;28;20405;-53
2023/01/13 07:50:00;;;;;;;;;;;18.30;53.00;;;;;;5002425;28;20289;-52
2023/01/13 07:52:25;;;;;;;;;;;18.30;53.00;;;;;;4994191;28;20396;-53
2023/01/13 07:54:51;;;;;;;;;;;18.30;53.00;;;;;;4992905;28;20259;-53
2023/01/13 07:57:16;;;;;;;;;;;18.30;52.80;;;;;;4994053;28;20131;-53
2023/01/13 07:59:42;;;;;;;;;;;18.30;52.80;;;;;;4993486;28;20271;-52
2023/01/13 08:02:11;;;;;;;;;;;18.30;52.80;;;;;;5001447;28;19961;-52
2023/01/13 08:04:36;;;;;;;;;;;18.30;52.80;;;;;;5035178;28;20077;-53
2023/01/13 08:07:03;;;;;;;;;;;18.30;52.90;;;;;;5003871;28;20008;-52
2023/01/13 08:09:28;;;;;;;;;;;18.20;52.90;;;;;;4993879;28;19925;-52
2023/01/13 08:13:16;;;;;;;;;;;18.20;53.00;;;;;;5003416;28;19917;-53
2023/01/13 08:14:39;;;;;;;;;;;18.20;53.00;;;;;;5023545;28;20407;-52
2023/01/13 08:17:06;;;;;;;;;;;18.20;52.90;;;;;;5032947;28;19932;-52
2023/01/13 08:19:31;;;;;;;;;;;18.20;52.90;;;;;;5023281;28;19932;-52
2023/01/13 08:21:57;;;;;;;;;;;18.30;52.90;;;;;;5012991;28;20365;-52
2023/01/13 08:24:22;;;;;;;;;;;18.30;52.70;;;;;;5013407;28;20318;-52
2023/01/13 08:26:47;;;;;;;;;;;18.30;52.70;;;;;;5013062;28;19916;-53
2023/01/13 08:29:13;;;;;;;;;;;18.20;52.70;;;;;;5019857;28;19960;-52
2023/01/13 08:31:39;;;;;;;;;;;18.30;52.70;;;;;;5022422;28;19918;-53
2023/01/13 08:34:04;;;;;;;;;;;18.30;52.70;;;;;;5013219;28;19921;-52
2023/01/13 08:36:30;;;;;;;;;;;18.30;52.70;;;;;;5017011;28;19913;-52
2023/01/13 08:38:55;;;;;;;;;;;18.30;52.70;;;;;;5026576;28;20024;-52
2023/01/13 08:41:53;;;;;;;;;;;18.20;52.60;;;;;;5006095;28;19920;-52
2023/01/13 08:44:08;;;;;;;;;;;18.30;52.60;;;;;;4994016;28;20414;-52
2023/01/13 08:46:33;;;;;;;;;;;18.30;52.50;;;;;;4998607;28;20377;-53
2023/01/13 08:48:59;;;;;;;;;;;18.30;52.50;;;;;;4994655;28;19917;-53
2023/01/13 08:51:24;;;;;;;;;;;18.30;52.50;;;;;;4994198;28;20294;-53
2023/01/13 08:53:50;;;;;;;;;;;18.30;52.70;;;;;;4996212;28;20354;-53
2023/01/13 08:56:15;;;;;;;;;;;18.30;52.50;;;;;;4994203;28;19921;-52
2023/01/13 08:58:41;;;;;;;;;;;18.30;52.50;;;;;;5007854;28;19972;-53
2023/01/13 09:01:07;;;;;;;;;;;18.40;52.40;;;;;;4994887;28;19921;-52
2023/01/13 09:03:32;;;;;;;;;;;19.00;51.30;;;;;;5001100;28;19924;-53
2023/01/13 09:05:58;;;;;;;;;;;19.90;49.40;;;;;;4995826;28;19921;-53
2023/01/13 09:08:23;;;;;;;;;;;20.60;48.00;;;;;;4995580;28;20369;-53
2023/01/13 09:10:49;;;;;;;;;;;21.10;47.00;;;;;;4999184;28;19917;-53
2023/01/13 09:13:15;;;;;;;;;;;21.50;46.00;;;;;;5003147;28;19917;-53
2023/01/13 09:15:42;;;;;;;;;;;21.80;45.40;;;;;;4996606;28;19967;-53
2023/01/13 09:18:08;;;;;;;;;;;22.20;44.80;;;;;;5006208;28;19968;-53
2023/01/13 09:20:33;;;;;;;;;;;22.50;44.20;;;;;;5011768;28;20329;-53
2023/01/13 09:22:59;;;;;;;;;;;22.80;43.60;;;;;;4995069;28;19925;-53
2023/01/13 09:25:24;;;;;;;;;;;23.00;43.10;;;;;;5008206;28;19987;-52
2023/01/13 09:27:50;;;;;;;;;;;23.20;42.90;;;;;;4996137;28;19953;-54
2023/01/13 09:30:15;;;;;;;;;;;23.40;42.80;;;;;;4996259;28;19914;-53
2023/01/13 09:32:41;;;;;;;;;;;23.50;42.50;;;;;;5013973;28;19924;-54
2023/01/13 09:35:06;;;;;;;;;;;23.70;42.30;;;;;;5020259;28;19956;-54
2023/01/13 09:37:33;;;;;;;;;;;23.80;42.20;;;;;;4994748;28;19918;-53
2023/01/13 09:39:58;;;;;;;;;;;23.80;41.90;;;;;;5025160;28;20337;-53
2023/01/13 09:45:20;;;;;;;;;;;24.00;41.70;;;;;;5006589;28;19922;-53
2023/01/13 09:47:56;;;;;;;;;;;24.10;41.60;;;;;;5008014;28;19914;-53
2023/01/13 09:50:29;;;;;;;;;;;24.00;41.70;;;;;;5007868;28;19914;-53
2023/01/13 09:52:54;;;;;;;;;;;24.00;41.50;;;;;;5008107;28;20461;-52
2023/01/13 09:55:25;;;;;;;;;;;24.10;41.60;;;;;;5002587;28;19914;-52
2023/01/13 09:57:50;;;;;;;;;;;24.00;41.70;;;;;;5011337;28;19963;-52
2023/01/13 10:00:22;;;;;;;;;;;24.00;41.70;;;;;;5010250;28;19925;-53
2023/01/13 10:03:06;;;;;;;;;;;24.00;41.70;;;;;;5006144;28;20508;-53
2023/01/13 10:05:35;;;;;;;;;;;24.00;41.70;;;;;;5003272;28;20289;-53
2023/01/13 10:08:04;;;;;;;;;;;24.10;41.80;;;;;;5006420;28;19996;-53
2023/01/13 10:10:37;;;;;;;;;;;24.10;41.40;;;;;;5026254;28;19968;-53
2023/01/13 10:13:29;;;;;;;;;;;24.10;41.60;;;;;;5007078;28;19913;-53
2023/01/13 10:16:20;;;;;;;;;;;24.00;41.70;;;;;;5000492;28;19953;-53
2023/01/13 10:18:49;;;;;;;;;;;23.90;41.90;;;;;;5005473;28;19969;-52
2023/01/13 10:21:14;;;;;;;;;;;23.80;41.90;;;;;;5009357;28;20004;-52
2023/01/13 10:23:44;;;;;;;;;;;23.90;41.90;;;;;;5004875;28;20389;-53
2023/01/13 10:26:19;;;;;;;;;;;24.00;41.70;;;;;;5004364;28;19923;-52
2023/01/13 10:28:50;;;;;;;;;;;24.10;41.40;;;;;;5009512;28;19922;-52
2023/01/13 10:31:16;;;;;;;;;;;24.10;41.30;;;;;;5007009;28;19914;-53
2023/01/13 10:33:41;;;;;;;;;;;24.10;41.40;;;;;;5028359;28;19913;-52
2023/01/13 10:36:13;;;;;;;;;;;24.10;41.40;;;;;;5011382;28;20004;-53
2023/01/13 10:38:40;;;;;;;;;;;24.20;41.30;;;;;;5006743;28;20114;-52
2023/01/13 10:41:18;;;;;;;;;;;24.20;41.30;;;;;;5004545;28;19921;-52
2023/01/13 10:43:44;;;;;;;;;;;24.30;41.00;;;;;;5004062;28;20316;-52
2023/01/13 10:46:16;;;;;;;;;;;24.30;40.80;;;;;;5008605;28;19917;-53
2023/01/13 10:48:42;;;;;;;;;;;24.40;40.80;;;;;;5011018;28;19917;-52
2023/01/13 10:51:11;;;;;;;;;;;24.40;40.60;;;;;;5014037;28;19976;-52
2023/01/13 10:53:48;;;;;;;;;;;24.40;40.80;;;;;;5014495;28;19918;-52
2023/01/13 10:56:15;;;;;;;;;;;24.30;40.80;;;;;;5042894;28;20301;-52
2023/01/13 10:58:40;;;;;;;;;;;24.20;40.80;;;;;;5020797;28;19921;-51
2023/01/13 11:01:08;;;;;;;;;;;24.20;41.00;;;;;;5003477;28;20193;-52
2023/01/13 11:03:39;;;;;;;;;;;24.30;40.90;;;;;;5000777;28;19920;-52
2023/01/13 11:06:04;;;;;;;;;;;24.30;40.80;;;;;;5026599;28;20374;-52
2023/01/13 11:08:40;;;;;;;;;;;24.40;41.00;;;;;;4999909;28;19959;-52
2023/01/13 11:11:07;;;;;;;;;;;24.40;41.00;;;;;;5025950;28;19914;-52
2023/01/13 11:13:34;;;;;;;;;;;24.40;41.20;;;;;;5042719;28;19920;-52
2023/01/13 11:16:10;;;;;;;;;;;24.30;41.40;;;;;;5034779;28;19917;-51
2023/01/13 11:19:12;;;;;;;;;;;24.10;41.70;;;;;;5032039;28;19917;-52
2023/01/13 11:21:53;;;;;;;;;;;24.00;41.90;;;;;;5024569;28;19921;-52
2023/01/13 11:24:20;;;;;;;;;;;23.90;42.20;;;;;;5005091;28;20346;-52
2023/01/13 11:26:49;;;;;;;;;;;24.00;42.20;;;;;;5001191;28;19920;-52
2023/01/13 11:29:19;;;;;;;;;;;24.10;42.10;;;;;;5027501;28;19928;-53
2023/01/13 11:31:46;;;;;;;;;;;24.20;41.90;;;;;;5031616;28;19918;-52
2023/01/13 11:34:26;;;;;;;;;;;24.30;41.80;;;;;;5030501;28;20000;-54
2023/01/13 11:36:52;;;;;;;;;;;24.40;41.70;;;;;;5030981;28;19921;-52
2023/01/13 11:39:23;;;;;;;;;;;24.40;41.60;;;;;;5008722;28;19921;-53
2023/01/13 11:42:19;;;;;;;;;;;24.50;41.70;;;;;;5012578;28;20377;-52
2023/01/13 11:44:41;;;;;;;;;;;24.50;41.60;;;;;;5004478;28;19948;-51
2023/01/13 11:47:06;;;;;;;;;;;24.50;41.60;;;;;;5007381;28;19913;-52
2023/01/13 11:49:32;;;;;;;;;;;24.50;41.70;;;;;;5029026;28;19910;-52
2023/01/13 11:52:05;;;;;;;;;;;24.50;42.30;;;;;;4997196;28;19968;-51
2023/01/13 11:54:36;;;;;;;;;;;24.50;41.60;;;;;;4994669;28;20005;-52
2023/01/13 11:57:21;;;;;;;;;;;24.40;41.80;;;;;;5008708;28;19928;-52
2023/01/13 11:59:49;;;;;;;;;;;24.40;41.90;;;;;;4997747;28;19968;-51
2023/01/13 12:02:20;;;;;;;;;;;24.30;42.10;;;;;;5013035;28;19952;-52
2023/01/13 12:04:46;;;;;;;;;;;24.30;42.30;;;;;;4998144;28;20356;-52
2023/01/13 12:07:34;;;;;;;;;;;24.20;42.20;;;;;;5001071;28;20047;-52
2023/01/13 12:10:18;;;;;;;;;;;24.20;42.20;;;;;;5007121;28;20544;-52
2023/01/13 12:12:51;;;;;;;;;;;24.20;42.10;;;;;;5004571;28;20401;-52
2023/01/13 12:15:17;;;;;;;;;;;24.20;42.50;;;;;;5041254;28;19917;-52
2023/01/13 12:18:01;;;;;;;;;;;24.20;42.30;;;;;;5010464;28;19917;-52
2023/01/13 12:20:35;;;;;;;;;;;24.30;42.20;;;;;;5012746;28;20003;-52
2023/01/13 12:23:02;;;;;;;;;;;24.40;42.00;;;;;;5011428;28;19951;-54
2023/01/13 12:25:36;;;;;;;;;;;24.30;41.90;;;;;;5018291;28;19921;-53
2023/01/13 12:28:03;;;;;;;;;;;24.30;42.00;;;;;;5015575;28;19921;-53
2023/01/13 12:30:35;;;;;;;;;;;24.30;42.00;;;;;;5040213;28;20040;-51
2023/01/13 12:33:23;;;;;;;;;;;24.10;42.10;;;;;;5001100;28;19914;-51
2023/01/13 12:35:52;;;;;;;;;;;24.10;42.30;;;;;;4998081;28;19914;-53
2023/01/13 12:38:24;;;;;;;;;;;24.10;42.40;;;;;;5029658;28;19917;-52
2023/01/13 12:41:05;;;;;;;;;;;24.30;42.00;;;;;;4995826;28;19952;-52
2023/01/13 12:46:18;;;;;;;;;;;24.50;41.70;;;;;;5002498;28;19924;-52
2023/01/13 12:48:55;;;;;;;;;;;24.50;41.30;;;;;;5007804;28;19921;-52
2023/01/13 12:51:28;;;;;;;;;;;24.60;41.40;;;;;;5019432;28;19917;-52
2023/01/13 12:53:53;;;;;;;;;;;24.60;41.30;;;;;;5012131;28;19920;-52
2023/01/13 12:56:29;;;;;;;;;;;24.60;41.30;;;;;;4992810;28;20288;-52
2023/01/13 12:59:13;;;;;;;;;;;24.60;41.40;;;;;;5033612;28;19921;-51
2023/01/13 13:01:39;;;;;;;;;;;24.60;41.20;;;;;;5010851;28;20005;-51
2023/01/13 13:04:25;;;;;;;;;;;24.70;41.20;;;;;;5008232;28;19992;-52
2023/01/13 13:06:51;;;;;;;;;;;24.70;41.20;;;;;;5001309;28;19914;-53
2023/01/13 13:09:29;;;;;;;;;;;24.70;41.10;;;;;;5006991;28;19960;-52
2023/01/13 13:14:35;;;;;;;;;;;24.80;41.20;;;;;;4999705;28;19936;-52
2023/01/13 13:17:01;;;;;;;;;;;24.70;41.00;;;;;;5006881;28;20011;-53
2023/01/13 13:19:29;;;;;;;;;;;24.70;41.00;;;;;;5011330;28;20000;-52
2023/01/13 13:22:13;;;;;;;;;;;24.60;41.20;;;;;;5008493;28;19929;-53
2023/01/13 13:24:39;;;;;;;;;;;24.60;41.20;;;;;;5000720;28;19917;-52
2023/01/13 13:27:16;;;;;;;;;;;24.60;41.40;;;;;;4998257;28;20340;-53
2023/01/13 13:29:52;;;;;;;;;;;24.60;41.30;;;;;;5008457;28;20321;-52
2023/01/13 13:32:25;;;;;;;;;;;24.60;41.50;;;;;;5043822;28;19968;-52
2023/01/13 13:34:57;;;;;;;;;;;24.60;41.80;;;;;;5004151;28;19918;-52
2023/01/13 13:48:48;;;;;;;;;;;24.10;42.70;;;;;;5011925;28;20288;-53
2023/01/13 13:51:21;;;;;;;;;;;24.20;42.50;;;;;;5010850;28;19921;-52
2023/01/13 13:53:46;;;;;;;;;;;24.30;42.20;;;;;;5008989;28;20373;-52
2023/01/13 13:56:15;;;;;;;;;;;24.30;42.10;;;;;;5010996;28;19963;-52
2023/01/13 13:58:41;;;;;;;;;;;24.30;42.20;;;;;;5008486;28;19917;-52
2023/01/13 14:01:06;;;;;;;;;;;24.30;42.30;;;;;;5011125;28;20293;-53
2023/01/13 14:03:35;;;;;;;;;;;24.30;42.40;;;;;;5011460;28;19940;-53
2023/01/13 14:06:04;;;;;;;;;;;24.30;42.40;;;;;;5012878;28;19925;-53
2023/01/13 14:08:30;;;;;;;;;;;24.50;42.00;;;;;;5013334;28;21461;-53
2023/01/13 14:10:55;;;;;;;;;;;24.70;41.80;;;;;;5008910;28;19917;-52
2023/01/13 14:13:22;;;;;;;;;;;24.70;41.50;;;;;;5015093;28;19909;-52
2023/01/13 14:15:55;;;;;;;;;;;24.80;41.50;;;;;;5008360;28;19987;-53
2023/01/13 14:18:20;;;;;;;;;;;24.90;41.50;;;;;;5039465;28;19917;-52
2023/01/13 14:20:53;;;;;;;;;;;24.90;41.40;;;;;;5010737;28;19920;-52
2023/01/13 14:23:18;;;;;;;;;;;24.90;41.40;;;;;;5014387;28;20290;-52
2023/01/13 14:25:47;;;;;;;;;;;24.90;41.50;;;;;;5013164;28;19920;-54
2023/01/13 14:28:19;;;;;;;;;;;24.90;41.40;;;;;;5009982;28;19924;-53
2023/01/13 14:30:44;;;;;;;;;;;24.90;41.50;;;;;;5012530;28;19917;-53
2023/01/13 14:33:12;;;;;;;;;;;24.90;41.50;;;;;;5014773;28;20266;-52
2023/01/13 14:35:37;;;;;;;;;;;24.90;41.50;;;;;;5012886;28;20368;-52
2023/01/13 14:38:03;;;;;;;;;;;24.90;41.60;;;;;;5013417;28;19917;-52
2023/01/13 14:40:31;;;;;;;;;;;24.80;41.60;;;;;;5011649;28;19963;-52
2023/01/13 14:42:59;;;;;;;;;;;24.70;41.70;;;;;;5014745;28;19924;-53
2023/01/13 14:45:25;;;;;;;;;;;24.70;41.90;;;;;;5007913;28;19924;-51
2023/01/13 14:47:54;;;;;;;;;;;24.60;41.90;;;;;;5011805;28;19914;-52
2023/01/13 14:50:22;;;;;;;;;;;24.60;42.20;;;;;;5010959;28;19917;-52
2023/01/13 14:52:48;;;;;;;;;;;24.60;42.20;;;;;;5012326;28;19957;-52
2023/01/13 14:55:21;;;;;;;;;;;24.50;41.90;;;;;;5012442;28;19918;-52
2023/01/13 14:57:46;;;;;;;;;;;24.60;42.10;;;;;;5010275;28;20001;-52
2023/01/13 15:00:12;;;;;;;;;;;24.50;42.20;;;;;;5014111;28;20020;-53
2023/01/13 15:02:38;;;;;;;;;;;24.30;42.50;;;;;;5011185;28;19913;-52
2023/01/13 15:05:16;;;;;;;;;;;24.20;42.70;;;;;;5017377;28;19967;-52
2023/01/13 15:08:08;;;;;;;;;;;24.10;42.50;;;;;;5016989;28;19914;-53
2023/01/13 15:10:37;;;;;;;;;;;24.30;42.60;;;;;;5014499;28;19960;-52
2023/01/13 15:13:03;;;;;;;;;;;24.40;42.30;;;;;;4996168;28;20429;-53
2023/01/13 15:15:31;;;;;;;;;;;24.60;42.00;;;;;;5035007;28;19917;-53